createdAt,value
2022-12-08T00:00:01.528Z,91.48
2022-12-08T00:01:01.517Z,91.52
2022-12-08T00:02:01.659Z,91.52
2022-12-08T00:03:01.558Z,91.53
2022-12-08T00:04:01.468Z,91.51
2022-12-08T00:05:01.790Z,91.54
2022-12-08T00:06:01.437Z,91.52
2022-12-08T00:07:01.461Z,91.52
2022-12-08T00:08:01.460Z,91.51
2022-12-08T00:09:01.417Z,91.53
2022-12-08T00:10:14.347Z,91.53
2022-12-08T00:11:02.401Z,91.53
2022-12-08T00:12:01.386Z,91.58
2022-12-08T00:13:01.378Z,91.60
2022-12-08T00:14:01.348Z,91.61
2022-12-08T00:15:01.602Z,91.60
2022-12-08T00:16:01.331Z,91.61
2022-12-08T00:17:01.392Z,91.62
2022-12-08T00:18:01.298Z,91.65
2022-12-08T00:19:01.299Z,91.65
2022-12-08T00:20:01.314Z,91.69
2022-12-08T00:21:01.275Z,91.74
2022-12-08T00:22:01.277Z,91.77
2022-12-08T00:23:01.263Z,91.80
2022-12-08T00:24:01.237Z,91.78
2022-12-08T00:25:01.487Z,91.83
2022-12-08T00:26:01.215Z,91.85
2022-12-08T00:27:01.209Z,91.83
2022-12-08T00:28:01.198Z,91.86
2022-12-08T00:29:01.213Z,91.86
2022-12-08T00:30:01.178Z,91.88
2022-12-08T00:31:01.171Z,91.90
2022-12-08T00:32:01.187Z,91.90
2022-12-08T00:33:01.158Z,91.89
2022-12-08T00:34:01.108Z,91.89
2022-12-08T00:35:01.192Z,91.91
2022-12-08T00:36:01.086Z,91.93
2022-12-08T00:37:01.099Z,91.91
2022-12-08T00:38:01.264Z,91.96
2022-12-08T00:39:01.065Z,91.97
2022-12-08T00:40:01.134Z,92.01
2022-12-08T00:41:01.042Z,92.01
2022-12-08T00:42:01.022Z,92.11
2022-12-08T00:43:01.027Z,92.11
2022-12-08T00:44:01.013Z,92.14
2022-12-08T00:45:01.001Z,92.16
2022-12-08T00:46:01.001Z,92.14
2022-12-08T00:47:00.967Z,92.19
2022-12-08T00:48:00.946Z,92.23
2022-12-08T00:49:00.968Z,92.25
2022-12-08T00:50:01.011Z,92.23
2022-12-08T00:51:00.926Z,92.24
2022-12-08T00:52:00.896Z,92.22
2022-12-08T00:53:00.906Z,92.23
2022-12-08T00:54:00.875Z,92.25
2022-12-08T00:55:00.898Z,92.26
2022-12-08T00:56:00.868Z,92.26
2022-12-08T00:57:00.861Z,92.25
2022-12-08T00:58:00.832Z,92.24
2022-12-08T00:59:00.827Z,92.23
2022-12-08T01:00:00.948Z,92.25
2022-12-08T01:01:00.850Z,92.22
2022-12-08T01:02:00.791Z,92.22
2022-12-08T01:03:00.826Z,92.23
2022-12-08T01:04:00.776Z,92.22
2022-12-08T01:05:00.758Z,92.23
2022-12-08T01:06:00.747Z,92.23
2022-12-08T01:07:00.763Z,92.21
2022-12-08T01:08:00.800Z,92.19
2022-12-08T01:09:00.709Z,92.20
2022-12-08T01:10:00.814Z,92.20
2022-12-08T01:11:00.699Z,92.21
2022-12-08T01:12:00.683Z,92.21
2022-12-08T01:13:00.681Z,92.20
2022-12-08T01:14:00.659Z,92.21
2022-12-08T01:15:02.446Z,92.23
2022-12-08T01:16:00.648Z,92.25
2022-12-08T01:17:00.667Z,92.25
2022-12-08T01:18:00.606Z,92.24
2022-12-08T01:19:00.602Z,92.28
2022-12-08T01:20:00.611Z,92.28
2022-12-08T01:21:00.580Z,92.27
2022-12-08T01:22:00.557Z,92.26
2022-12-08T01:23:00.553Z,92.27
2022-12-08T01:24:00.531Z,92.29
2022-12-08T01:25:00.523Z,92.29
2022-12-08T01:26:00.496Z,92.30
2022-12-08T01:27:00.498Z,92.29
2022-12-08T01:28:00.488Z,92.32
2022-12-08T01:29:00.478Z,92.31
2022-12-08T01:30:00.605Z,92.32
2022-12-08T01:31:00.486Z,92.33
2022-12-08T01:32:00.436Z,92.32
2022-12-08T01:33:00.451Z,92.32
2022-12-08T01:34:00.411Z,92.31
2022-12-08T01:35:00.405Z,92.33
2022-12-08T01:36:00.387Z,92.33
2022-12-08T01:37:00.376Z,92.32
2022-12-08T01:38:00.377Z,92.33
2022-12-08T01:39:00.372Z,92.36
2022-12-08T01:40:00.337Z,92.37
2022-12-08T01:41:00.346Z,92.37
2022-12-08T01:42:00.314Z,92.36
2022-12-08T01:43:00.326Z,92.36
2022-12-08T01:44:00.295Z,92.36
2022-12-08T01:45:00.292Z,92.36
2022-12-08T01:46:00.336Z,92.36
2022-12-08T01:47:00.280Z,92.39
2022-12-08T01:48:00.297Z,92.38
2022-12-08T01:49:00.251Z,92.36
2022-12-08T01:50:00.219Z,92.36
2022-12-08T01:51:00.217Z,92.36
2022-12-08T01:52:00.203Z,92.34
2022-12-08T01:53:00.207Z,92.34
2022-12-08T01:54:00.179Z,92.31
2022-12-08T01:55:00.175Z,92.28
2022-12-08T01:56:00.147Z,92.28
2022-12-08T01:57:00.158Z,92.29
2022-12-08T01:58:00.122Z,92.28
2022-12-08T01:59:00.146Z,92.30
2022-12-08T02:00:00.104Z,92.29
2022-12-08T02:01:00.264Z,92.27
2022-12-08T02:02:00.091Z,92.27
2022-12-08T02:03:00.203Z,92.27
2022-12-08T02:04:00.077Z,92.24
2022-12-08T02:05:00.069Z,92.26
2022-12-08T02:06:00.037Z,92.27
2022-12-08T02:07:04.924Z,92.26
2022-12-08T02:08:01.080Z,92.27
2022-12-08T02:09:00.026Z,92.26
2022-12-08T02:09:59.977Z,92.25
2022-12-08T02:10:59.984Z,92.23
2022-12-08T02:11:59.967Z,92.23
2022-12-08T02:12:59.965Z,92.23
2022-12-08T02:13:59.950Z,92.23
2022-12-08T02:15:04.801Z,92.21
2022-12-08T02:16:00.944Z,92.15
2022-12-08T02:16:59.925Z,92.11
2022-12-08T02:17:59.899Z,92.08
2022-12-08T02:19:29.147Z,92.09
2022-12-08T02:20:00.959Z,92.10
2022-12-08T02:20:59.874Z,92.10
2022-12-08T02:21:59.855Z,92.09
2022-12-08T02:22:59.851Z,92.07
2022-12-08T02:23:59.824Z,92.05
2022-12-08T02:24:59.851Z,92.05
2022-12-08T02:25:59.803Z,92.02
2022-12-08T02:26:59.802Z,92.00
2022-12-08T02:27:59.777Z,91.98
2022-12-08T02:28:59.778Z,92.01
2022-12-08T02:29:59.771Z,92.00
2022-12-08T02:30:59.785Z,91.99
2022-12-08T02:31:59.746Z,92.00
2022-12-08T02:32:59.722Z,91.99
2022-12-08T02:33:59.718Z,91.98
2022-12-08T02:34:59.695Z,91.97
2022-12-08T02:35:59.715Z,91.95
2022-12-08T02:36:59.676Z,91.96
2022-12-08T02:37:59.678Z,91.96
2022-12-08T02:38:59.650Z,91.97
2022-12-08T02:39:59.649Z,91.97
2022-12-08T02:40:59.630Z,91.97
2022-12-08T02:41:59.638Z,91.95
2022-12-08T02:42:59.598Z,91.93
2022-12-08T02:43:59.608Z,91.94
2022-12-08T02:44:59.578Z,91.94
2022-12-08T02:45:59.631Z,91.93
2022-12-08T02:46:59.586Z,91.93
2022-12-08T02:47:59.552Z,91.91
2022-12-08T02:48:59.533Z,91.86
2022-12-08T02:49:59.534Z,91.84
2022-12-08T02:50:59.510Z,91.83
2022-12-08T02:51:59.530Z,91.84
2022-12-08T02:52:59.498Z,91.84
2022-12-08T02:53:59.496Z,91.83
2022-12-08T02:54:59.466Z,91.82
2022-12-08T02:55:59.460Z,91.82
2022-12-08T02:56:59.436Z,91.82
2022-12-08T02:57:59.460Z,91.79
2022-12-08T02:58:59.416Z,91.79
2022-12-08T02:59:59.416Z,91.79
2022-12-08T03:00:59.394Z,91.79
2022-12-08T03:01:59.455Z,91.79
2022-12-08T03:02:59.426Z,91.75
2022-12-08T03:03:59.391Z,91.76
2022-12-08T03:04:59.341Z,91.74
2022-12-08T03:05:59.347Z,91.75
2022-12-08T03:06:59.316Z,91.75
2022-12-08T03:07:59.355Z,91.75
2022-12-08T03:08:59.292Z,91.73
2022-12-08T03:09:59.317Z,91.73
2022-12-08T03:10:59.273Z,91.73
2022-12-08T03:11:59.280Z,91.74
2022-12-08T03:12:59.256Z,91.72
2022-12-08T03:13:59.250Z,91.71
2022-12-08T03:14:59.246Z,91.72
2022-12-08T03:15:59.288Z,91.71
2022-12-08T03:16:59.211Z,91.72
2022-12-08T03:17:59.202Z,91.70
2022-12-08T03:18:59.183Z,91.69
2022-12-08T03:19:59.203Z,91.70
2022-12-08T03:20:59.157Z,91.70
2022-12-08T03:21:59.169Z,91.69
2022-12-08T03:22:59.135Z,91.69
2022-12-08T03:23:59.138Z,91.69
2022-12-08T03:24:59.112Z,91.68
2022-12-08T03:25:59.130Z,91.68
2022-12-08T03:26:59.083Z,91.68
2022-12-08T03:27:59.107Z,91.65
2022-12-08T03:28:59.060Z,91.65
2022-12-08T03:29:59.070Z,91.65
2022-12-08T03:30:59.088Z,91.67
2022-12-08T03:31:59.037Z,91.66
2022-12-08T03:32:59.010Z,91.62
2022-12-08T03:33:59.015Z,91.56
2022-12-08T03:34:58.997Z,91.52
2022-12-08T03:35:59.007Z,91.49
2022-12-08T03:36:58.973Z,91.51
2022-12-08T03:37:58.977Z,91.54
2022-12-08T03:38:58.945Z,91.54
2022-12-08T03:39:58.947Z,91.52
2022-12-08T03:40:58.931Z,91.49
2022-12-08T03:41:58.927Z,91.46
2022-12-08T03:42:58.898Z,91.44
2022-12-08T03:43:58.908Z,91.42
2022-12-08T03:44:58.874Z,91.44
2022-12-08T03:45:58.934Z,91.45
2022-12-08T03:46:58.859Z,91.43
2022-12-08T03:47:58.862Z,91.45
2022-12-08T03:48:58.827Z,91.44
2022-12-08T03:49:58.838Z,91.43
2022-12-08T03:50:58.809Z,91.41
2022-12-08T03:51:58.831Z,91.38
2022-12-08T03:52:58.784Z,91.40
2022-12-08T03:53:58.787Z,91.39
2022-12-08T03:54:58.758Z,91.40
2022-12-08T03:55:58.769Z,91.37
2022-12-08T03:56:58.733Z,91.36
2022-12-08T03:57:58.764Z,91.36
2022-12-08T03:58:58.713Z,91.36
2022-12-08T03:59:58.718Z,91.37
2022-12-08T04:00:58.691Z,91.34
2022-12-08T04:01:58.747Z,91.34
2022-12-08T04:02:58.704Z,91.33
2022-12-08T04:03:58.700Z,91.32
2022-12-08T04:04:58.648Z,91.28
2022-12-08T04:05:58.647Z,91.28
2022-12-08T04:06:58.617Z,91.30
2022-12-08T04:07:58.655Z,91.32
2022-12-08T04:08:58.608Z,91.32
2022-12-08T04:09:58.609Z,91.29
2022-12-08T04:10:58.566Z,91.31
2022-12-08T04:11:58.579Z,91.29
2022-12-08T04:12:58.547Z,91.28
2022-12-08T04:13:58.572Z,91.27
2022-12-08T04:14:58.528Z,91.26
2022-12-08T04:15:58.608Z,91.26
2022-12-08T04:16:58.506Z,91.25
2022-12-08T04:17:58.508Z,91.24
2022-12-08T04:18:58.501Z,91.21
2022-12-08T04:19:58.484Z,91.22
2022-12-08T04:20:58.466Z,91.22
2022-12-08T04:21:58.459Z,91.21
2022-12-08T04:22:58.431Z,91.19
2022-12-08T04:24:01.274Z,91.18
2022-12-08T04:24:58.408Z,91.21
2022-12-08T04:25:58.418Z,91.18
2022-12-08T04:26:58.390Z,91.21
2022-12-08T04:27:58.387Z,91.21
2022-12-08T04:28:58.384Z,91.20
2022-12-08T04:29:58.375Z,91.21
2022-12-08T04:30:58.359Z,91.24
2022-12-08T04:31:58.459Z,91.26
2022-12-08T04:32:58.313Z,91.27
2022-12-08T04:33:58.326Z,91.28
2022-12-08T04:34:58.296Z,91.27
2022-12-08T04:35:58.303Z,91.25
2022-12-08T04:36:58.271Z,91.28
2022-12-08T04:37:58.289Z,91.31
2022-12-08T04:38:58.268Z,91.32
2022-12-08T04:39:58.258Z,91.32
2022-12-08T04:40:58.229Z,91.33
2022-12-08T04:41:58.224Z,91.32
2022-12-08T04:42:58.209Z,91.30
2022-12-08T04:43:58.238Z,91.31
2022-12-08T04:44:58.179Z,91.29
2022-12-08T04:45:58.188Z,91.28
2022-12-08T04:46:58.200Z,91.26
2022-12-08T04:47:58.157Z,91.23
2022-12-08T04:48:58.150Z,91.23
2022-12-08T04:49:58.129Z,91.21
2022-12-08T04:50:58.106Z,91.21
2022-12-08T04:51:58.125Z,91.21
2022-12-08T04:52:58.090Z,91.21
2022-12-08T04:53:58.094Z,91.16
2022-12-08T04:54:58.091Z,91.10
2022-12-08T04:55:58.074Z,91.06
2022-12-08T04:56:58.041Z,91.05
2022-12-08T04:57:58.047Z,91.03
2022-12-08T04:58:58.028Z,91.05
2022-12-08T04:59:58.016Z,91.03
2022-12-08T05:00:58.057Z,91.01
2022-12-08T05:01:58.081Z,91.00
2022-12-08T05:02:57.992Z,90.94
2022-12-08T05:03:57.972Z,90.97
2022-12-08T05:04:57.950Z,90.97
2022-12-08T05:05:57.969Z,90.99
2022-12-08T05:06:57.922Z,90.99
2022-12-08T05:07:57.989Z,90.96
2022-12-08T05:08:57.903Z,90.96
2022-12-08T05:09:57.920Z,90.97
2022-12-08T05:10:57.878Z,90.97
2022-12-08T05:11:57.894Z,90.97
2022-12-08T05:12:57.860Z,90.98
2022-12-08T05:13:57.916Z,90.98
2022-12-08T05:14:57.827Z,90.97
2022-12-08T05:15:57.897Z,90.95
2022-12-08T05:16:57.820Z,90.94
2022-12-08T05:17:57.813Z,90.93
2022-12-08T05:18:57.790Z,90.93
2022-12-08T05:19:57.798Z,90.94
2022-12-08T05:20:57.766Z,90.94
2022-12-08T05:21:57.814Z,90.96
2022-12-08T05:22:57.740Z,91.00
2022-12-08T05:23:57.748Z,91.02
2022-12-08T05:24:57.717Z,90.99
2022-12-08T05:25:57.712Z,90.98
2022-12-08T05:26:57.704Z,91.00
2022-12-08T05:28:11.642Z,91.01
2022-12-08T05:28:58.666Z,91.00
2022-12-08T05:29:57.676Z,90.99
2022-12-08T05:30:57.654Z,90.97
2022-12-08T05:31:57.738Z,90.96
2022-12-08T05:32:57.625Z,90.94
2022-12-08T05:34:02.789Z,90.95
2022-12-08T05:34:58.597Z,90.93
2022-12-08T05:35:57.608Z,90.93
2022-12-08T05:36:57.579Z,90.94
2022-12-08T05:37:57.599Z,90.94
2022-12-08T05:38:57.566Z,90.96
2022-12-08T05:39:57.563Z,90.96
2022-12-08T05:40:57.526Z,90.98
2022-12-08T05:41:57.541Z,90.98
2022-12-08T05:42:57.508Z,90.95
2022-12-08T05:43:57.528Z,90.94
2022-12-08T05:44:57.487Z,90.90
2022-12-08T05:45:57.539Z,90.91
2022-12-08T05:46:57.465Z,90.91
2022-12-08T05:47:57.466Z,90.92
2022-12-08T05:48:57.457Z,90.91
2022-12-08T05:49:57.449Z,90.93
2022-12-08T05:50:57.418Z,90.94
2022-12-08T05:51:57.418Z,90.94
2022-12-08T05:52:57.398Z,90.94
2022-12-08T05:53:57.395Z,90.92
2022-12-08T05:54:57.386Z,90.92
2022-12-08T05:55:57.391Z,90.94
2022-12-08T05:56:57.350Z,90.96
2022-12-08T05:57:57.357Z,90.97
2022-12-08T05:58:57.334Z,90.98
2022-12-08T05:59:57.347Z,91.00
2022-12-08T06:00:57.311Z,91.03
2022-12-08T06:01:57.369Z,91.01
2022-12-08T06:02:57.392Z,91.01
2022-12-08T06:03:57.294Z,91.06
2022-12-08T06:04:57.262Z,91.07
2022-12-08T06:05:57.278Z,91.06
2022-12-08T06:06:57.243Z,91.08
2022-12-08T06:07:57.268Z,91.07
2022-12-08T06:08:57.211Z,91.10
2022-12-08T06:09:57.216Z,91.15
2022-12-08T06:10:57.193Z,91.15
2022-12-08T06:11:57.207Z,91.20
2022-12-08T06:12:57.169Z,91.23
2022-12-08T06:13:57.176Z,91.26
2022-12-08T06:14:57.155Z,91.24
2022-12-08T06:15:57.151Z,91.23
2022-12-08T06:16:57.189Z,91.26
2022-12-08T06:17:57.130Z,91.27
2022-12-08T06:18:57.097Z,91.27
2022-12-08T06:19:57.100Z,91.29
2022-12-08T06:20:57.076Z,91.30
2022-12-08T06:21:57.092Z,91.35
2022-12-08T06:22:57.056Z,91.38
2022-12-08T06:23:57.064Z,91.35
2022-12-08T06:24:57.028Z,91.34
2022-12-08T06:25:57.046Z,91.37
2022-12-08T06:26:57.019Z,91.40
2022-12-08T06:27:57.009Z,91.39
2022-12-08T06:28:56.990Z,91.37
2022-12-08T06:29:56.992Z,91.40
2022-12-08T06:30:56.959Z,91.39
2022-12-08T06:31:57.097Z,91.37
2022-12-08T06:32:56.934Z,91.37
2022-12-08T06:33:56.944Z,91.36
2022-12-08T06:34:56.920Z,91.35
2022-12-08T06:35:56.916Z,91.36
2022-12-08T06:36:56.928Z,91.35
2022-12-08T06:37:56.908Z,91.35
2022-12-08T06:38:56.876Z,91.34
2022-12-08T06:39:56.885Z,91.35
2022-12-08T06:40:56.847Z,91.32
2022-12-08T06:41:56.884Z,91.30
2022-12-08T06:42:56.828Z,91.32
2022-12-08T06:43:56.829Z,91.32
2022-12-08T06:44:56.805Z,91.31
2022-12-08T06:45:56.840Z,91.31
2022-12-08T06:46:56.790Z,91.33
2022-12-08T06:47:56.785Z,91.29
2022-12-08T06:48:56.772Z,91.31
2022-12-08T06:49:56.744Z,91.32
2022-12-08T06:50:56.745Z,91.28
2022-12-08T06:51:56.726Z,91.24
2022-12-08T06:53:04.884Z,91.22
2022-12-08T06:53:57.692Z,91.19
2022-12-08T06:54:56.698Z,91.20
2022-12-08T06:56:00.130Z,91.20
2022-12-08T06:56:56.676Z,91.18
2022-12-08T06:57:57.249Z,91.09
2022-12-08T06:58:56.672Z,91.00
2022-12-08T06:59:56.629Z,90.88
2022-12-08T07:00:56.670Z,90.77
2022-12-08T07:01:56.659Z,90.71
2022-12-08T07:02:56.656Z,90.68
2022-12-08T07:03:56.599Z,90.66
2022-12-08T07:04:56.589Z,90.61
2022-12-08T07:06:01.791Z,90.57
2022-12-08T07:06:57.561Z,90.59
2022-12-08T07:07:56.578Z,90.57
2022-12-08T07:08:56.560Z,90.58
2022-12-08T07:09:56.516Z,90.54
2022-12-08T07:10:56.518Z,90.49
2022-12-08T07:11:56.499Z,90.44
2022-12-08T07:12:56.494Z,90.43
2022-12-08T07:13:56.491Z,90.37
2022-12-08T07:14:56.479Z,90.34
2022-12-08T07:15:56.449Z,90.32
2022-12-08T07:16:56.489Z,90.34
2022-12-08T07:17:59.780Z,90.35
2022-12-08T07:18:56.428Z,90.41
2022-12-08T07:19:56.404Z,90.37
2022-12-08T07:20:56.402Z,90.40
2022-12-08T07:21:56.377Z,90.43
2022-12-08T07:22:56.383Z,90.41
2022-12-08T07:23:58.008Z,90.44
2022-12-08T07:24:56.364Z,90.50
2022-12-08T07:25:56.359Z,90.50
2022-12-08T07:26:56.373Z,90.49
2022-12-08T07:27:56.300Z,90.49
2022-12-08T07:28:56.308Z,90.51
2022-12-08T07:29:56.374Z,90.56
2022-12-08T07:30:56.314Z,90.59
2022-12-08T07:31:56.260Z,90.61
2022-12-08T07:32:56.245Z,90.64
2022-12-08T07:33:56.228Z,90.64
2022-12-08T07:34:56.242Z,90.64
2022-12-08T07:35:56.224Z,90.64
2022-12-08T07:36:56.220Z,90.63
2022-12-08T07:37:56.202Z,90.63
2022-12-08T07:38:56.201Z,90.62
2022-12-08T07:39:56.158Z,90.63
2022-12-08T07:40:56.169Z,90.63
2022-12-08T07:41:56.155Z,90.61
2022-12-08T07:42:56.147Z,90.60
2022-12-08T07:43:56.118Z,90.61
2022-12-08T07:44:56.124Z,90.60
2022-12-08T07:45:56.148Z,90.60
2022-12-08T07:46:56.096Z,90.61
2022-12-08T07:47:56.098Z,90.63
2022-12-08T07:48:56.071Z,90.63
2022-12-08T07:49:56.045Z,90.67
2022-12-08T07:50:56.060Z,90.70
2022-12-08T07:51:56.022Z,90.69
2022-12-08T07:52:56.038Z,90.67
2022-12-08T07:53:56.020Z,90.68
2022-12-08T07:54:56.006Z,90.69
2022-12-08T07:55:55.979Z,90.67
2022-12-08T07:56:55.976Z,90.67
2022-12-08T07:57:55.969Z,90.66
2022-12-08T07:58:55.963Z,90.66
2022-12-08T07:59:55.936Z,90.67
2022-12-08T08:00:56.102Z,90.66
2022-12-08T08:02:20.931Z,90.64
2022-12-08T08:02:56.987Z,90.63
2022-12-08T08:03:55.884Z,90.62
2022-12-08T08:04:55.981Z,90.61
2022-12-08T08:05:55.871Z,90.59
2022-12-08T08:06:55.862Z,90.59
2022-12-08T08:07:55.958Z,90.56
2022-12-08T08:08:55.844Z,90.53
2022-12-08T08:09:55.806Z,90.53
2022-12-08T08:10:55.819Z,90.47
2022-12-08T08:12:22.308Z,90.47
2022-12-08T08:12:56.807Z,90.50
2022-12-08T08:13:55.766Z,90.44
2022-12-08T08:14:55.767Z,90.47
2022-12-08T08:15:55.806Z,90.43
2022-12-08T08:16:55.801Z,90.37
2022-12-08T08:17:55.739Z,90.30
2022-12-08T08:18:55.726Z,90.27
2022-12-08T08:19:55.704Z,90.26
2022-12-08T08:20:55.706Z,90.27
2022-12-08T08:21:55.673Z,90.24
2022-12-08T08:22:55.691Z,90.14
2022-12-08T08:23:55.667Z,90.11
2022-12-08T08:24:55.655Z,90.15
2022-12-08T08:25:55.653Z,90.17
2022-12-08T08:26:55.628Z,90.15
2022-12-08T08:27:55.630Z,90.08
2022-12-08T08:28:55.608Z,90.07
2022-12-08T08:29:55.580Z,90.02
2022-12-08T08:30:55.657Z,90.00
2022-12-08T08:31:55.560Z,90.00
2022-12-08T08:32:55.577Z,89.96
2022-12-08T08:33:55.539Z,89.88
2022-12-08T08:34:55.540Z,89.77
2022-12-08T08:35:55.520Z,89.74
2022-12-08T08:36:55.595Z,89.77
2022-12-08T08:37:55.506Z,89.70
2022-12-08T08:38:55.503Z,89.62
2022-12-08T08:39:55.466Z,89.59
2022-12-08T08:40:55.477Z,89.46
2022-12-08T08:41:55.453Z,89.38
2022-12-08T08:42:55.458Z,89.37
2022-12-08T08:43:55.435Z,89.34
2022-12-08T08:44:55.431Z,89.23
2022-12-08T08:45:55.512Z,89.10
2022-12-08T08:46:55.430Z,89.00
2022-12-08T08:47:55.375Z,88.96
2022-12-08T08:48:55.397Z,88.90
2022-12-08T08:49:55.356Z,88.90
2022-12-08T08:50:55.360Z,88.90
2022-12-08T08:51:55.332Z,88.94
2022-12-08T08:52:55.328Z,88.95
2022-12-08T08:53:55.323Z,88.95
2022-12-08T08:54:55.312Z,88.84
2022-12-08T08:55:55.291Z,88.76
2022-12-08T08:56:55.281Z,88.74
2022-12-08T08:57:55.264Z,88.75
2022-12-08T08:58:55.261Z,88.78
2022-12-08T08:59:55.241Z,88.81
2022-12-08T09:00:55.253Z,88.87
2022-12-08T09:01:55.249Z,88.88
2022-12-08T09:02:55.210Z,88.89
2022-12-08T09:03:55.197Z,88.87
2022-12-08T09:04:55.229Z,88.84
2022-12-08T09:05:55.258Z,88.78
2022-12-08T09:06:55.174Z,88.79
2022-12-08T09:07:55.256Z,88.89
2022-12-08T09:08:55.160Z,88.98
2022-12-08T09:10:00.018Z,89.00
2022-12-08T09:10:56.117Z,89.00
2022-12-08T09:11:55.098Z,89.00
2022-12-08T09:12:55.103Z,89.01
2022-12-08T09:13:55.070Z,89.03
2022-12-08T09:14:55.110Z,89.03
2022-12-08T09:15:55.093Z,89.07
2022-12-08T09:16:55.051Z,89.16
2022-12-08T09:17:55.030Z,89.13
2022-12-08T09:18:55.037Z,89.11
2022-12-08T09:19:55.010Z,89.09
2022-12-08T09:20:55.017Z,89.12
2022-12-08T09:21:54.992Z,89.11
2022-12-08T09:22:54.980Z,89.12
2022-12-08T09:23:54.977Z,89.12
2022-12-08T09:24:54.965Z,89.04
2022-12-08T09:25:54.963Z,88.98
2022-12-08T09:26:54.921Z,88.91
2022-12-08T09:27:54.902Z,88.88
2022-12-08T09:28:54.904Z,88.86
2022-12-08T09:29:54.877Z,88.82
2022-12-08T09:30:54.941Z,88.77
2022-12-08T09:31:54.924Z,88.76
2022-12-08T09:32:54.856Z,88.67
2022-12-08T09:33:54.844Z,88.68
2022-12-08T09:34:54.827Z,88.66
2022-12-08T09:35:54.832Z,88.66
2022-12-08T09:36:54.813Z,88.67
2022-12-08T09:37:54.793Z,88.68
2022-12-08T09:38:54.806Z,88.70
2022-12-08T09:39:54.798Z,88.67
2022-12-08T09:40:54.774Z,88.67
2022-12-08T09:41:54.755Z,88.63
2022-12-08T09:42:54.745Z,88.59
2022-12-08T09:43:54.726Z,88.57
2022-12-08T09:44:54.719Z,88.57
2022-12-08T09:45:54.702Z,88.54
2022-12-08T09:46:54.766Z,88.48
2022-12-08T09:47:55.378Z,88.45
2022-12-08T09:48:54.679Z,88.40
2022-12-08T09:49:54.681Z,88.40
2022-12-08T09:50:54.665Z,88.31
2022-12-08T09:51:54.651Z,88.27
2022-12-08T09:52:54.649Z,87.83
2022-12-08T09:53:54.601Z,87.60
2022-12-08T09:54:54.603Z,87.65
2022-12-08T09:55:54.577Z,87.51
2022-12-08T09:56:54.580Z,87.11
2022-12-08T09:57:56.533Z,86.70
2022-12-08T09:58:54.550Z,86.36
2022-12-08T09:59:54.527Z,86.38
2022-12-08T10:00:54.531Z,86.40
2022-12-08T10:01:54.582Z,86.40
2022-12-08T10:02:54.507Z,86.41
2022-12-08T10:03:54.507Z,86.28
2022-12-08T10:04:54.543Z,86.26
2022-12-08T10:05:54.462Z,86.53
2022-12-08T10:06:54.467Z,86.93
2022-12-08T10:07:54.459Z,87.12
2022-12-08T10:08:54.453Z,87.15
2022-12-08T10:09:54.432Z,87.10
2022-12-08T10:10:54.430Z,86.97
2022-12-08T10:11:54.390Z,86.77
2022-12-08T10:12:54.407Z,86.29
2022-12-08T10:13:54.374Z,85.87
2022-12-08T10:14:54.391Z,85.70
2022-12-08T10:15:54.470Z,85.59
2022-12-08T10:16:54.385Z,85.66
2022-12-08T10:17:54.332Z,85.42
2022-12-08T10:18:54.329Z,84.90
2022-12-08T10:19:54.313Z,84.57
2022-12-08T10:20:54.301Z,84.60
2022-12-08T10:21:54.271Z,84.55
2022-12-08T10:22:54.299Z,84.07
2022-12-08T10:23:54.259Z,83.97
2022-12-08T10:24:54.249Z,83.74
2022-12-08T10:25:54.251Z,83.85
2022-12-08T10:26:54.229Z,83.61
2022-12-08T10:27:54.207Z,82.79
2022-12-08T10:28:54.218Z,82.97
2022-12-08T10:29:54.182Z,82.17
2022-12-08T10:30:54.273Z,82.26
2022-12-08T10:31:54.222Z,82.03
2022-12-08T10:32:54.175Z,81.81
2022-12-08T10:33:54.132Z,81.54
2022-12-08T10:34:56.390Z,81.43
2022-12-08T10:35:54.155Z,81.51
2022-12-08T10:36:54.121Z,81.67
2022-12-08T10:37:54.128Z,81.64
2022-12-08T10:38:54.089Z,81.03
2022-12-08T10:39:54.065Z,81.05
2022-12-08T10:40:54.106Z,80.83
2022-12-08T10:41:54.051Z,80.95
2022-12-08T10:42:54.048Z,80.66
2022-12-08T10:43:54.023Z,80.37
2022-12-08T10:44:54.025Z,80.01
2022-12-08T10:45:54.022Z,79.67
2022-12-08T10:46:54.049Z,79.00
2022-12-08T10:47:55.528Z,78.90
2022-12-08T10:48:53.992Z,78.83
2022-12-08T10:49:53.952Z,79.18
2022-12-08T10:50:53.960Z,79.35
2022-12-08T10:51:53.948Z,79.59
2022-12-08T10:52:53.925Z,79.43
2022-12-08T10:53:53.904Z,79.54
2022-12-08T10:54:53.910Z,79.66
2022-12-08T10:55:53.880Z,79.71
2022-12-08T10:56:53.949Z,79.38
2022-12-08T10:57:53.862Z,79.47
2022-12-08T10:58:53.883Z,79.97
2022-12-08T10:59:53.831Z,80.36
2022-12-08T11:00:54.070Z,80.06
2022-12-08T11:01:54.020Z,79.85
2022-12-08T11:02:53.866Z,80.30
2022-12-08T11:03:53.939Z,80.41
2022-12-08T11:04:53.797Z,79.71
2022-12-08T11:05:53.794Z,79.21
2022-12-08T11:06:53.801Z,79.81
2022-12-08T11:07:53.817Z,80.14
2022-12-08T11:08:53.734Z,79.92
2022-12-08T11:09:53.743Z,79.25
2022-12-08T11:10:53.719Z,78.13
2022-12-08T11:11:53.723Z,78.99
2022-12-08T11:12:53.689Z,79.54
2022-12-08T11:13:53.697Z,80.08
2022-12-08T11:14:53.661Z,80.40
2022-12-08T11:15:53.702Z,80.18
2022-12-08T11:16:53.707Z,80.08
2022-12-08T11:17:57.639Z,79.97
2022-12-08T11:18:53.619Z,79.49
2022-12-08T11:19:53.631Z,79.24
2022-12-08T11:20:53.598Z,79.32
2022-12-08T11:21:53.591Z,79.46
2022-12-08T11:22:53.582Z,79.70
2022-12-08T11:23:53.571Z,79.29
2022-12-08T11:24:53.544Z,79.09
2022-12-08T11:25:53.551Z,78.78
2022-12-08T11:26:53.532Z,78.71
2022-12-08T11:27:53.546Z,78.71
2022-12-08T11:28:53.494Z,78.83
2022-12-08T11:29:53.502Z,79.16
2022-12-08T11:30:53.485Z,79.50
2022-12-08T11:31:53.561Z,79.48
2022-12-08T11:32:53.472Z,78.92
2022-12-08T11:33:53.471Z,78.13
2022-12-08T11:34:53.486Z,77.94
2022-12-08T11:35:53.433Z,78.17
2022-12-08T11:36:53.419Z,77.24
2022-12-08T11:38:03.113Z,76.00
2022-12-08T11:38:54.394Z,75.44
2022-12-08T11:39:53.390Z,75.04
2022-12-08T11:40:53.356Z,75.10
2022-12-08T11:41:53.369Z,76.47
2022-12-08T11:42:53.342Z,76.81
2022-12-08T11:43:53.369Z,77.43
2022-12-08T11:44:53.318Z,76.94
2022-12-08T11:45:53.389Z,76.87
2022-12-08T11:46:53.292Z,76.51
2022-12-08T11:47:55.944Z,77.33
2022-12-08T11:48:53.283Z,77.80
2022-12-08T11:49:53.269Z,77.10
2022-12-08T11:50:53.243Z,77.11
2022-12-08T11:51:53.256Z,77.64
2022-12-08T11:52:53.235Z,78.05
2022-12-08T11:53:53.233Z,78.39
2022-12-08T11:54:53.198Z,78.34
2022-12-08T11:55:53.194Z,78.21
2022-12-08T11:56:53.174Z,77.81
2022-12-08T11:57:53.219Z,77.43
2022-12-08T11:58:53.164Z,77.08
2022-12-08T11:59:53.161Z,76.63
2022-12-08T12:00:53.129Z,76.85
2022-12-08T12:01:53.249Z,77.35
2022-12-08T12:02:53.159Z,77.11
2022-12-08T12:03:53.131Z,76.73
2022-12-08T12:04:53.086Z,75.89
2022-12-08T12:06:55.386Z,75.29
2022-12-08T12:07:53.126Z,75.00
2022-12-08T12:08:53.021Z,74.49
2022-12-08T12:09:53.045Z,75.07
2022-12-08T12:10:53.005Z,75.70
2022-12-08T12:11:53.016Z,75.92
2022-12-08T12:12:52.983Z,76.09
2022-12-08T12:13:52.993Z,75.81
2022-12-08T12:14:52.965Z,75.61
2022-12-08T12:15:52.984Z,76.41
2022-12-08T12:16:53.019Z,76.24
2022-12-08T12:17:52.968Z,75.46
2022-12-08T12:18:52.912Z,75.25
2022-12-08T12:19:52.929Z,76.07
2022-12-08T12:20:52.889Z,76.61
2022-12-08T12:21:52.912Z,75.56
2022-12-08T12:22:52.866Z,74.27
2022-12-08T12:23:52.872Z,73.89
2022-12-08T12:24:52.844Z,73.95
2022-12-08T12:25:52.846Z,73.96
2022-12-08T12:26:52.836Z,74.06
2022-12-08T12:27:57.258Z,74.01
2022-12-08T12:28:52.798Z,74.18
2022-12-08T12:30:05.085Z,75.35
2022-12-08T12:30:53.816Z,74.81
2022-12-08T12:31:52.795Z,74.07
2022-12-08T12:32:52.748Z,73.61
2022-12-08T12:33:52.766Z,73.69
2022-12-08T12:34:52.725Z,74.51
2022-12-08T12:35:52.736Z,75.08
2022-12-08T12:36:52.698Z,75.55
2022-12-08T12:37:52.789Z,76.18
2022-12-08T12:38:52.679Z,75.92
2022-12-08T12:39:52.702Z,75.76
2022-12-08T12:40:52.654Z,75.56
2022-12-08T12:41:52.711Z,75.78
2022-12-08T12:42:52.639Z,74.85
2022-12-08T12:43:52.646Z,74.65
2022-12-08T12:44:52.613Z,73.93
2022-12-08T12:45:52.651Z,73.40
2022-12-08T12:46:52.587Z,73.81
2022-12-08T12:47:56.634Z,73.59
2022-12-08T12:48:52.559Z,74.21
2022-12-08T12:49:52.612Z,74.75
2022-12-08T12:50:52.541Z,75.09
2022-12-08T12:51:52.575Z,75.05
2022-12-08T12:52:52.531Z,75.27